Magnolia Square, Florida
Current Conditions -  °F | °C
As of 6:53 AM on Thursday 23 Oct 2014 (Local Time) from KMCO Reporting Station
Scattered Clouds Scattered Clouds  
Wind Chill: 62°   Ceiling: Unl
Heat Index: 62°   Visibility: 10mi
Dew Point: 58°   Wind: 8mph
Humidity: 86%   Direction: 350°N
Pressure: 29.98"   Gusts: NA
Location:  28.2734°N, 81.1262°W
Report Text: KMCO 231053Z 35007KT 10SM SCT250 17/14 A2998 RMK AO2 SLP151 T01670144
Loading
Personal Weather Stations






























Interactive Weather Map
Tropical Storm Tracking
New forecast layout! Learn more

10-Day Weather Forecast

Advertisements
Track Severe Weather on mobile